createdAt,value
2023-05-17T00:02:01.472Z,0.95
2023-05-17T00:04:28.865Z,0.88
2023-05-17T00:06:56.089Z,0.80
2023-05-17T00:09:25.633Z,0.90
2023-05-17T00:11:52.925Z,0.90
2023-05-17T00:14:20.437Z,0.90
2023-05-17T00:16:47.709Z,1.00
2023-05-17T00:19:15.058Z,0.90
2023-05-17T00:21:42.463Z,1.00
2023-05-17T00:24:09.833Z,0.88
2023-05-17T00:26:37.110Z,1.00
2023-05-17T00:29:04.419Z,1.00
2023-05-17T00:31:31.767Z,1.00
2023-05-17T00:33:59.040Z,0.90
2023-05-17T00:36:26.307Z,0.77
2023-05-17T00:38:53.617Z,1.00
2023-05-17T00:41:21.073Z,1.00
2023-05-17T00:43:48.411Z,0.98
2023-05-17T00:46:16.245Z,1.00
2023-05-17T00:48:43.966Z,0.93
2023-05-17T00:51:12.376Z,0.80
2023-05-17T00:53:40.121Z,0.90
2023-05-17T00:56:07.525Z,0.90
2023-05-17T00:58:34.905Z,0.85
2023-05-17T01:01:02.548Z,0.90
2023-05-17T01:03:29.986Z,0.88
2023-05-17T01:05:57.399Z,0.95
2023-05-17T01:08:24.718Z,0.80
2023-05-17T01:11:04.081Z,1.00
2023-05-17T01:13:36.632Z,1.00
2023-05-17T01:16:36.412Z,1.00
2023-05-17T01:19:09.429Z,0.90
2023-05-17T01:21:49.112Z,0.82
2023-05-17T01:24:55.417Z,1.00
2023-05-17T01:27:26.196Z,1.00
2023-05-17T01:29:55.849Z,0.90
2023-05-17T01:32:23.341Z,1.00
2023-05-17T01:34:51.072Z,0.80
2023-05-17T01:37:18.395Z,1.00
2023-05-17T01:39:47.951Z,0.97
2023-05-17T01:42:21.805Z,0.85
2023-05-17T01:44:58.085Z,0.80
2023-05-17T01:47:29.165Z,0.80
2023-05-17T01:49:56.430Z,1.00
2023-05-17T01:52:26.800Z,0.90
2023-05-17T01:55:00.169Z,0.90
2023-05-17T01:57:30.491Z,0.98
2023-05-17T02:00:00.144Z,1.05
2023-05-17T02:02:30.192Z,0.90
2023-05-17T02:04:58.573Z,1.00
2023-05-17T02:07:25.951Z,0.85
2023-05-17T02:09:53.225Z,0.97
2023-05-17T02:12:20.517Z,0.90
2023-05-17T02:14:47.827Z,0.80
2023-05-17T02:17:15.093Z,1.00
2023-05-17T02:19:42.516Z,0.90
2023-05-17T02:22:09.775Z,0.90
2023-05-17T02:24:37.125Z,0.88
2023-05-17T02:27:04.540Z,0.90
2023-05-17T02:29:31.828Z,0.90
2023-05-17T02:31:59.177Z,0.90
2023-05-17T02:34:26.435Z,0.80
2023-05-17T02:36:53.756Z,0.83
2023-05-17T02:39:21.414Z,0.80
2023-05-17T02:41:48.695Z,1.00
2023-05-17T02:44:16.010Z,0.90
2023-05-17T02:46:43.299Z,0.70
2023-05-17T02:49:10.572Z,1.00
2023-05-17T02:51:37.832Z,1.00
2023-05-17T02:54:05.267Z,0.93
2023-05-17T02:56:33.049Z,0.95
2023-05-17T02:59:01.391Z,0.82
2023-05-17T03:01:28.838Z,0.90
2023-05-17T03:03:56.235Z,0.88
2023-05-17T03:06:23.718Z,0.68
2023-05-17T03:08:50.981Z,0.90
2023-05-17T03:11:18.248Z,0.77
2023-05-17T03:13:46.492Z,0.83
2023-05-17T03:18:41.079Z,0.80
2023-05-17T03:21:08.522Z,0.77
2023-05-17T03:23:35.776Z,0.90
2023-05-17T03:26:03.031Z,0.90
2023-05-17T03:28:30.353Z,0.80
2023-05-17T03:30:57.673Z,1.00
2023-05-17T03:33:25.175Z,0.80
2023-05-17T03:35:52.556Z,0.90
2023-05-17T03:38:19.825Z,0.90
2023-05-17T03:40:47.076Z,0.70
2023-05-17T03:43:14.309Z,1.03
2023-05-17T03:45:41.541Z,1.00
2023-05-17T03:48:08.811Z,0.90
2023-05-17T03:50:36.037Z,1.00
2023-05-17T03:53:03.399Z,1.00
2023-05-17T03:55:30.734Z,0.80
2023-05-17T03:57:58.070Z,1.00
2023-05-17T04:00:25.336Z,0.97
2023-05-17T04:02:52.693Z,0.83
2023-05-17T04:05:20.695Z,0.88
2023-05-17T04:07:48.047Z,0.95
2023-05-17T04:10:15.452Z,1.00
2023-05-17T04:12:42.742Z,0.80
2023-05-17T04:15:10.282Z,0.80
2023-05-17T04:17:37.574Z,0.90
2023-05-17T04:20:06.656Z,0.80
2023-05-17T04:22:34.361Z,0.90
2023-05-17T04:25:01.697Z,0.90
2023-05-17T04:27:29.392Z,0.90
2023-05-17T04:29:56.677Z,0.90
2023-05-17T04:32:24.212Z,0.80
2023-05-17T04:34:52.187Z,0.82
2023-05-17T04:37:20.106Z,0.80
2023-05-17T04:39:47.433Z,0.70
2023-05-17T04:42:14.718Z,0.80
2023-05-17T04:44:41.975Z,0.90
2023-05-17T04:47:09.314Z,1.00
2023-05-17T04:49:37.385Z,0.90
2023-05-17T04:52:06.185Z,0.70
2023-05-17T04:54:33.676Z,0.90
2023-05-17T04:57:03.699Z,1.00
2023-05-17T04:59:31.102Z,0.70
2023-05-17T05:01:58.414Z,0.90
2023-05-17T05:04:25.715Z,0.70
2023-05-17T05:06:53.018Z,0.80
2023-05-17T05:09:20.495Z,0.90
2023-05-17T05:11:47.803Z,0.90
2023-05-17T05:14:15.079Z,0.97
2023-05-17T05:16:42.333Z,0.90
2023-05-17T05:19:12.476Z,0.70
2023-05-17T05:21:39.882Z,0.90
2023-05-17T05:24:10.913Z,0.90
2023-05-17T05:26:38.244Z,0.90
2023-05-17T05:29:05.868Z,0.93
2023-05-17T05:31:33.227Z,0.90
2023-05-17T05:34:01.147Z,0.63
2023-05-17T05:36:28.487Z,0.90
2023-05-17T05:38:55.847Z,0.90
2023-05-17T05:41:23.131Z,0.80
2023-05-17T05:43:50.437Z,0.87
2023-05-17T05:46:17.703Z,0.90
2023-05-17T05:48:45.070Z,0.90
2023-05-17T05:51:12.674Z,0.83
2023-05-17T05:53:39.978Z,0.80
2023-05-17T05:56:09.946Z,1.00
2023-05-17T05:58:39.738Z,0.80
2023-05-17T06:01:07.111Z,0.80
2023-05-17T06:03:34.480Z,0.77
2023-05-17T06:06:01.947Z,0.90
2023-05-17T06:08:29.392Z,0.73
2023-05-17T06:10:56.664Z,0.83
2023-05-17T06:13:23.951Z,0.90
2023-05-17T06:15:51.321Z,0.90
2023-05-17T06:18:21.264Z,0.80
2023-05-17T06:20:48.611Z,0.80
2023-05-17T06:23:16.026Z,0.70
2023-05-17T06:25:43.453Z,0.80
2023-05-17T06:28:10.746Z,0.80
2023-05-17T06:30:38.043Z,0.60
2023-05-17T06:33:05.510Z,0.80
2023-05-17T06:35:40.821Z,0.95
2023-05-17T06:38:20.123Z,4.15
2023-05-17T06:40:47.368Z,3.47
2023-05-17T06:43:14.654Z,2.63
2023-05-17T06:45:41.892Z,1.92
2023-05-17T06:48:09.296Z,1.30
2023-05-17T06:50:39.346Z,1.45
2023-05-17T06:53:06.605Z,1.73
2023-05-17T06:55:33.954Z,1.58
2023-05-17T06:58:01.304Z,1.40
2023-05-17T07:00:29.315Z,1.60
2023-05-17T07:05:24.554Z,1.42
2023-05-17T07:07:52.278Z,1.45
2023-05-17T07:10:19.628Z,1.33
2023-05-17T07:12:46.896Z,1.43
2023-05-17T07:15:14.177Z,1.67
2023-05-17T07:17:41.521Z,1.35
2023-05-17T07:20:09.133Z,1.40
2023-05-17T07:22:37.547Z,1.50
2023-05-17T07:27:34.437Z,1.30
2023-05-17T07:30:03.466Z,1.33
2023-05-17T07:32:30.982Z,1.38
2023-05-17T07:35:00.669Z,1.48
2023-05-17T07:37:27.996Z,1.30
2023-05-17T07:39:55.502Z,1.40
2023-05-17T07:42:22.758Z,1.35
2023-05-17T07:44:50.135Z,1.20
2023-05-17T07:47:17.483Z,1.40
2023-05-17T07:49:44.820Z,1.30
2023-05-17T07:52:12.061Z,1.67
2023-05-17T07:54:41.870Z,1.40
2023-05-17T07:57:09.143Z,1.40
2023-05-17T07:59:36.652Z,1.27
2023-05-17T08:02:03.999Z,1.38
2023-05-17T08:04:31.491Z,1.30
2023-05-17T08:07:01.245Z,1.10
2023-05-17T08:09:28.571Z,1.20
2023-05-17T08:11:56.151Z,1.20
2023-05-17T08:14:24.792Z,1.40
2023-05-17T08:16:52.095Z,1.38
2023-05-17T08:19:19.900Z,1.17
2023-05-17T08:21:47.450Z,1.30
2023-05-17T08:24:19.602Z,1.30
2023-05-17T08:26:49.425Z,1.20
2023-05-17T08:29:17.176Z,1.45
2023-05-17T08:31:45.506Z,1.27
2023-05-17T08:34:12.831Z,1.30
2023-05-17T08:36:42.530Z,1.40
2023-05-17T08:39:10.064Z,1.10
2023-05-17T08:41:37.329Z,1.38
2023-05-17T08:44:05.061Z,1.33
2023-05-17T08:46:33.279Z,1.13
2023-05-17T08:51:29.685Z,1.20
2023-05-17T08:53:57.212Z,1.50
2023-05-17T08:56:25.348Z,1.20
2023-05-17T08:58:56.965Z,1.23
2023-05-17T09:01:26.795Z,1.27
2023-05-17T09:03:55.221Z,1.20
2023-05-17T09:06:23.101Z,1.20
2023-05-17T09:08:58.599Z,1.40
2023-05-17T09:11:30.157Z,1.50
2023-05-17T09:14:05.026Z,1.40
2023-05-17T09:16:36.309Z,1.33
2023-05-17T09:19:05.416Z,1.48
2023-05-17T09:21:34.039Z,1.10
2023-05-17T09:26:41.599Z,1.30
2023-05-17T09:29:18.307Z,1.10
2023-05-17T09:31:46.414Z,1.30
2023-05-17T09:34:13.692Z,1.30
2023-05-17T09:36:44.388Z,1.43
2023-05-17T09:39:13.711Z,1.30
2023-05-17T09:41:46.839Z,1.20
2023-05-17T09:44:15.326Z,1.27
2023-05-17T09:49:10.334Z,1.10
2023-05-17T09:51:42.446Z,1.02
2023-05-17T09:54:12.576Z,1.60
2023-05-17T09:56:40.038Z,1.13
2023-05-17T09:59:14.596Z,1.33
2023-05-17T10:01:42.772Z,1.00
2023-05-17T10:04:11.050Z,1.30
2023-05-17T10:06:47.585Z,1.15
2023-05-17T10:09:19.512Z,1.30
2023-05-17T10:11:47.555Z,1.27
2023-05-17T10:14:14.837Z,1.25
2023-05-17T10:16:43.138Z,1.20
2023-05-17T10:19:11.898Z,1.20
2023-05-17T10:21:39.751Z,1.20
2023-05-17T10:24:07.979Z,1.17
2023-05-17T10:29:04.008Z,1.10
2023-05-17T10:33:59.720Z,1.23
2023-05-17T10:36:27.196Z,1.17
2023-05-17T10:38:55.345Z,1.30
2023-05-17T10:43:52.303Z,1.20
2023-05-17T10:48:52.190Z,1.20
2023-05-17T10:51:27.625Z,1.20
2023-05-17T10:54:11.741Z,1.20
2023-05-17T10:56:43.301Z,1.23
2023-05-17T10:59:24.039Z,1.30
2023-05-17T11:01:55.638Z,1.10
2023-05-17T11:04:24.334Z,1.13
2023-05-17T11:06:55.898Z,1.20
2023-05-17T11:09:24.325Z,1.02
2023-05-17T11:12:18.081Z,1.10
2023-05-17T11:14:45.574Z,1.30
2023-05-17T11:17:17.841Z,1.10
2023-05-17T11:19:57.558Z,1.20
2023-05-17T11:22:28.499Z,1.30
2023-05-17T11:24:58.144Z,1.20
2023-05-17T11:27:28.864Z,1.20
2023-05-17T11:29:56.735Z,1.15
2023-05-17T11:32:29.271Z,1.20
2023-05-17T11:34:57.035Z,1.30
2023-05-17T11:37:28.124Z,1.20
2023-05-17T11:40:14.977Z,1.30
2023-05-17T11:42:42.668Z,1.25
2023-05-17T11:45:09.979Z,1.00
2023-05-17T11:47:40.575Z,1.10
2023-05-17T11:50:08.601Z,1.30
2023-05-17T11:52:35.916Z,1.10
2023-05-17T11:55:04.050Z,1.20
2023-05-17T11:57:32.364Z,1.10
2023-05-17T12:00:04.875Z,1.30
2023-05-17T12:02:32.602Z,1.10
2023-05-17T12:05:00.489Z,1.00
2023-05-17T12:07:28.641Z,0.90
2023-05-17T12:12:23.674Z,2.47
2023-05-17T12:14:51.149Z,2.70
2023-05-17T12:17:28.179Z,2.80
2023-05-17T12:19:55.866Z,2.70
2023-05-17T12:22:25.703Z,2.40
2023-05-17T12:24:53.118Z,2.88
2023-05-17T12:27:27.341Z,2.50
2023-05-17T12:29:54.627Z,2.50
2023-05-17T12:32:21.999Z,2.40
2023-05-17T12:34:49.566Z,2.37
2023-05-17T12:37:17.069Z,2.97
2023-05-17T12:39:44.344Z,2.30
2023-05-17T12:42:11.754Z,2.45
2023-05-17T12:44:39.831Z,2.25
2023-05-17T12:47:07.310Z,2.55
2023-05-17T12:49:39.097Z,2.28
2023-05-17T12:52:06.589Z,2.50
2023-05-17T12:54:34.465Z,2.15
2023-05-17T12:57:12.712Z,2.63
2023-05-17T12:59:49.965Z,2.05
2023-05-17T13:02:17.700Z,2.42
2023-05-17T13:04:45.121Z,2.28
2023-05-17T13:07:12.508Z,1.80
2023-05-17T13:09:49.602Z,2.13
2023-05-17T13:12:21.530Z,2.13
2023-05-17T13:14:51.856Z,2.20
2023-05-17T13:17:22.209Z,2.10
2023-05-17T13:19:49.648Z,1.92
2023-05-17T13:22:17.006Z,1.90
2023-05-17T13:24:45.286Z,1.83
2023-05-17T13:27:13.086Z,2.28
2023-05-17T13:29:42.124Z,2.00
2023-05-17T13:32:11.489Z,2.28
2023-05-17T13:34:39.208Z,2.20
2023-05-17T13:37:11.955Z,1.52
2023-05-17T13:39:40.025Z,2.05
2023-05-17T13:42:09.802Z,1.77
2023-05-17T13:44:38.435Z,1.73
2023-05-17T13:47:06.312Z,1.88
2023-05-17T13:49:33.716Z,2.00
2023-05-17T13:52:01.033Z,2.00
2023-05-17T13:54:28.345Z,2.03
2023-05-17T13:56:57.426Z,1.70
2023-05-17T13:59:24.766Z,1.95
2023-05-17T14:01:52.192Z,2.00
2023-05-17T14:04:21.306Z,1.80
2023-05-17T14:06:54.062Z,1.90
2023-05-17T14:09:22.345Z,1.48
2023-05-17T14:11:49.626Z,1.93
2023-05-17T14:14:19.110Z,2.10
2023-05-17T14:16:46.652Z,1.88
2023-05-17T14:19:14.000Z,1.90
2023-05-17T14:21:41.360Z,1.90
2023-05-17T14:24:08.714Z,1.97
2023-05-17T14:26:36.798Z,2.40
2023-05-17T14:31:33.003Z,2.20
2023-05-17T14:34:02.617Z,2.13
2023-05-17T14:36:30.182Z,2.35
2023-05-17T14:38:57.491Z,2.25
2023-05-17T14:41:24.845Z,2.15
2023-05-17T14:43:52.145Z,2.13
2023-05-17T14:46:21.862Z,2.37
2023-05-17T14:48:52.116Z,2.40
2023-05-17T14:51:20.205Z,2.22
2023-05-17T14:53:47.744Z,2.25
2023-05-17T14:56:15.394Z,2.60
2023-05-17T14:58:42.784Z,2.08
2023-05-17T15:01:10.182Z,2.00
2023-05-17T15:03:37.695Z,2.28
2023-05-17T15:06:08.122Z,2.10
2023-05-17T15:08:35.965Z,2.10
2023-05-17T15:11:03.321Z,2.25
2023-05-17T15:13:30.967Z,2.50
2023-05-17T15:15:58.739Z,2.28
2023-05-17T15:18:26.029Z,2.20
2023-05-17T15:20:53.359Z,2.55
2023-05-17T15:23:22.921Z,1.97
2023-05-17T15:25:50.216Z,1.67
2023-05-17T15:28:19.945Z,2.07
2023-05-17T15:30:47.891Z,1.83
2023-05-17T15:33:15.594Z,2.30
2023-05-17T15:35:43.380Z,1.90
2023-05-17T15:38:10.933Z,1.80
2023-05-17T15:40:38.186Z,1.80
2023-05-17T15:43:05.496Z,1.90
2023-05-17T15:45:33.116Z,1.67
2023-05-17T15:48:02.186Z,1.70
2023-05-17T15:50:29.600Z,1.90
2023-05-17T15:52:56.867Z,1.90
2023-05-17T15:55:26.584Z,2.00
2023-05-17T15:57:53.872Z,1.65
2023-05-17T16:00:21.844Z,1.67
2023-05-17T16:02:49.269Z,1.30
2023-05-17T16:05:16.968Z,2.10
2023-05-17T16:07:44.253Z,1.70
2023-05-17T16:10:13.799Z,1.70
2023-05-17T16:12:41.178Z,1.65
2023-05-17T16:15:09.376Z,1.50
2023-05-17T16:17:36.677Z,1.70
2023-05-17T16:20:06.314Z,1.80
2023-05-17T16:22:34.126Z,1.70
2023-05-17T16:25:04.931Z,1.60
2023-05-17T16:27:32.253Z,1.73
2023-05-17T16:29:59.497Z,1.60
2023-05-17T16:32:26.790Z,1.70
2023-05-17T16:34:54.024Z,1.92
2023-05-17T16:37:21.681Z,1.70
2023-05-17T16:39:50.069Z,1.80
2023-05-17T16:42:17.580Z,1.60
2023-05-17T16:44:44.917Z,1.80
2023-05-17T16:47:14.881Z,1.70
2023-05-17T16:49:42.969Z,1.50
2023-05-17T16:54:38.652Z,1.73
2023-05-17T16:57:08.157Z,1.52
2023-05-17T16:59:35.776Z,1.70
2023-05-17T17:02:03.190Z,1.65
2023-05-17T17:04:31.864Z,1.30
2023-05-17T17:06:59.439Z,1.50
2023-05-17T17:09:26.841Z,1.40
2023-05-17T17:11:54.159Z,1.20
2023-05-17T17:14:21.690Z,1.50
2023-05-17T17:16:49.058Z,1.60
2023-05-17T17:19:16.642Z,1.50
2023-05-17T17:21:44.172Z,1.63
2023-05-17T17:24:13.506Z,1.65
2023-05-17T17:26:41.061Z,1.33
2023-05-17T17:29:09.169Z,1.50
2023-05-17T17:31:36.509Z,1.45
2023-05-17T17:34:03.896Z,1.52
2023-05-17T17:36:31.320Z,1.50
2023-05-17T17:38:58.683Z,1.40
2023-05-17T17:41:26.536Z,1.50
2023-05-17T17:43:53.890Z,1.38
2023-05-17T17:46:21.274Z,1.48
2023-05-17T17:48:48.658Z,1.58
2023-05-17T17:51:16.098Z,1.45
2023-05-17T17:53:43.339Z,1.40
2023-05-17T17:56:10.866Z,1.30
2023-05-17T17:58:38.214Z,1.20
2023-05-17T18:01:05.603Z,1.40
2023-05-17T18:03:32.896Z,1.40
2023-05-17T18:06:00.242Z,1.77
2023-05-17T18:08:27.564Z,1.73
2023-05-17T18:10:54.845Z,1.55
2023-05-17T18:13:22.163Z,1.90
2023-05-17T18:15:51.616Z,1.90
2023-05-17T18:18:18.911Z,1.80
2023-05-17T18:20:46.197Z,1.50
2023-05-17T18:23:13.459Z,1.40
2023-05-17T18:25:40.944Z,1.48
2023-05-17T18:28:09.122Z,1.58
2023-05-17T18:30:40.044Z,1.55
2023-05-17T18:33:07.562Z,1.30
2023-05-17T18:35:35.381Z,1.58
2023-05-17T18:38:02.688Z,1.55
2023-05-17T18:40:30.114Z,1.55
2023-05-17T18:42:57.642Z,1.40
2023-05-17T18:45:24.954Z,1.40
2023-05-17T18:47:54.892Z,1.40
2023-05-17T18:50:22.261Z,1.38
2023-05-17T18:52:49.557Z,1.50
2023-05-17T18:55:16.961Z,1.50
2023-05-17T18:57:44.526Z,1.40
2023-05-17T19:00:12.075Z,1.58
2023-05-17T19:02:39.580Z,1.50
2023-05-17T19:05:07.227Z,1.23
2023-05-17T19:07:34.497Z,1.70
2023-05-17T19:10:01.779Z,1.50
2023-05-17T19:12:29.157Z,1.65
2023-05-17T19:14:56.435Z,1.65
2023-05-17T19:17:26.310Z,1.40
2023-05-17T19:19:55.953Z,1.50
2023-05-17T19:22:25.800Z,1.42
2023-05-17T19:24:53.129Z,1.48
2023-05-17T19:27:20.666Z,1.50
2023-05-17T19:29:48.415Z,1.58
2023-05-17T19:32:15.757Z,1.40
2023-05-17T19:34:43.129Z,1.45
2023-05-17T19:37:10.389Z,1.38
2023-05-17T19:39:37.650Z,1.63
2023-05-17T19:42:05.019Z,1.27
2023-05-17T19:44:34.530Z,1.30
2023-05-17T19:47:01.757Z,1.40
2023-05-17T19:49:29.045Z,1.40
2023-05-17T19:52:00.653Z,1.20
2023-05-17T19:54:31.350Z,1.60
2023-05-17T19:56:59.975Z,1.48
2023-05-17T19:59:27.220Z,1.30
2023-05-17T20:01:54.535Z,1.20
2023-05-17T20:04:21.878Z,1.58
2023-05-17T20:06:49.150Z,1.40
2023-05-17T20:09:16.741Z,1.30
2023-05-17T20:11:44.103Z,1.27
2023-05-17T20:14:12.419Z,1.35
2023-05-17T20:16:39.879Z,1.40
2023-05-17T20:19:07.233Z,1.45
2023-05-17T20:21:34.576Z,1.45
2023-05-17T20:24:03.904Z,1.27
2023-05-17T20:26:36.354Z,1.52
2023-05-17T20:29:05.674Z,1.48
2023-05-17T20:31:33.113Z,1.40
2023-05-17T20:34:00.985Z,1.13
2023-05-17T20:36:28.432Z,1.30
2023-05-17T20:38:55.996Z,1.23
2023-05-17T20:41:23.330Z,1.52
2023-05-17T20:43:51.735Z,1.20
2023-05-17T20:46:19.331Z,1.25
2023-05-17T20:48:48.219Z,1.38
2023-05-17T20:51:16.162Z,1.30
2023-05-17T20:53:43.488Z,1.20
2023-05-17T20:56:11.425Z,1.15
2023-05-17T20:58:38.719Z,1.35
2023-05-17T21:01:08.269Z,1.40
2023-05-17T21:03:35.705Z,1.30
2023-05-17T21:06:05.158Z,1.10
2023-05-17T21:08:32.931Z,1.42
2023-05-17T21:11:02.821Z,1.02
2023-05-17T21:13:30.149Z,1.27
2023-05-17T21:15:57.568Z,1.38
2023-05-17T21:18:29.717Z,1.52
2023-05-17T21:20:57.009Z,1.42
2023-05-17T21:23:24.283Z,1.17
2023-05-17T21:25:51.636Z,1.33
2023-05-17T21:28:18.921Z,1.20
2023-05-17T21:30:48.425Z,1.07
2023-05-17T21:33:15.690Z,1.30
2023-05-17T21:35:45.439Z,1.15
2023-05-17T21:38:12.810Z,1.33
2023-05-17T21:40:40.277Z,1.13
2023-05-17T21:43:07.863Z,1.50
2023-05-17T21:45:35.243Z,1.40
2023-05-17T21:48:02.579Z,1.25
2023-05-17T21:50:31.071Z,1.30
2023-05-17T21:52:58.817Z,1.20
2023-05-17T21:55:28.347Z,1.23
2023-05-17T21:57:57.398Z,1.42
2023-05-17T22:00:28.851Z,1.15
2023-05-17T22:02:56.566Z,1.10
2023-05-17T22:05:26.770Z,1.27
2023-05-17T22:07:54.061Z,1.23
2023-05-17T22:10:24.319Z,1.30
2023-05-17T22:12:54.184Z,1.40
2023-05-17T22:15:22.091Z,1.30
2023-05-17T22:17:52.974Z,1.10
2023-05-17T22:20:23.793Z,1.40
2023-05-17T22:22:51.308Z,1.20
2023-05-17T22:25:18.699Z,1.23
2023-05-17T22:27:46.091Z,1.13
2023-05-17T22:30:13.592Z,1.25
2023-05-17T22:32:40.944Z,1.25
2023-05-17T22:35:08.372Z,1.10
2023-05-17T22:37:36.501Z,1.15
2023-05-17T22:42:33.685Z,1.20
2023-05-17T22:45:01.034Z,1.15
2023-05-17T22:47:30.514Z,0.97
2023-05-17T22:49:57.836Z,1.10
2023-05-17T22:52:25.103Z,1.20
2023-05-17T22:54:52.400Z,1.20
2023-05-17T22:57:19.654Z,1.20
2023-05-17T22:59:46.926Z,1.40
2023-05-17T23:02:14.247Z,1.20
2023-05-17T23:04:41.576Z,1.20
2023-05-17T23:07:10.101Z,1.00
2023-05-17T23:09:40.849Z,1.23
2023-05-17T23:12:13.893Z,1.10
2023-05-17T23:14:41.269Z,1.20
2023-05-17T23:17:08.546Z,1.30
2023-05-17T23:19:35.960Z,1.00
2023-05-17T23:22:04.140Z,1.00
2023-05-17T23:26:58.878Z,1.27
2023-05-17T23:29:26.291Z,1.20
2023-05-17T23:31:54.010Z,1.00
2023-05-17T23:34:22.145Z,1.10
2023-05-17T23:39:16.631Z,1.20
2023-05-17T23:41:43.910Z,1.10
2023-05-17T23:44:17.959Z,1.30
2023-05-17T23:46:45.299Z,1.25
2023-05-17T23:49:12.543Z,1.30
2023-05-17T23:51:39.877Z,1.37
2023-05-17T23:54:07.189Z,1.10
2023-05-17T23:56:34.580Z,1.00
2023-05-17T23:59:02.022Z,1.13
